Flight Track Log - Related Links

Times and Time Zones

All times are in EDT time to prevent confusion due to time zone crossing. See the GGN7280 flight status page for this flight to view local times or setup timezone preferences in your user account.

Time Position Orientation Groundspeed Altitude Reporting Facility
EDT Latitude Longitude Course Direction KTS MPH feet Rate Location/Type
Wed 07:03:55 PM 43.6667 -79.5833 90° East 120 138 1,000  Level Toronto Center
Wed 07:04:55 PM 43.6667 -79.5333 99° East 160 184 2,300 1,200 Climbing Toronto Center
Wed 07:05:55 PM 43.6500 -79.4667 109° East 180 207 3,400 1,100 Climbing Toronto Center
Wed 07:06:55 PM 43.6167 -79.4000 125° Southeast 200 230 4,500 800 Climbing Toronto Center
Wed 07:07:55 PM 43.5833 -79.3333 125° Southeast 200 230 5,000 900 Climbing Toronto Center
Wed 07:08:55 PM 43.5500 -79.2667 125° Southeast 220 253 6,300 1,300 Climbing Toronto Center
Wed 07:09:55 PM 43.5333 -79.2000 109° East 210 242 7,600 1,150 Climbing Toronto Center
Wed 07:10:55 PM 43.5000 -79.1333 125° Southeast 210 242 8,600 700 Climbing Toronto Center
Wed 07:11:55 PM 43.4667 -79.0667 125° Southeast 240 276 9,000 200 Climbing Toronto Center
Wed 07:12:55 PM 43.4333 -78.9500 111° Southeast 260 299 9,000  Level Toronto Center
Wed 07:13:55 PM 43.4000 -78.8833 125° Southeast 260 299 9,000  Level Toronto Center
Wed 07:15:29 PM 43.3547 -78.7744 120° Southeast 256 295 9,000  Level Cleveland Center
Wed 07:16:32 PM 43.3172 -78.6936 123° Southeast 255 293 9,000 -240 Level Cleveland Center
Wed 07:17:34 PM 43.2711 -78.6003 124° Southeast 250 288 8,500 -919 Descending Cleveland Center
Wed 07:18:36 PM 43.2350 -78.5186 121° Southeast 260 299 7,100 -1,548 Descending Cleveland Center
Wed 07:19:38 PM 43.2011 -78.4278 117° Southeast 260 299 5,300 -1,016 Descending Cleveland Center
Wed 07:20:40 PM 43.1944 -78.3314 95° East 257 296 5,000 -98 Descending Cleveland Center
Wed 07:21:40 PM 43.1828 -78.2331 99° East 243 280 5,100 50 Climbing Cleveland Center
Wed 07:22:40 PM 43.1750 -78.1408 97° East 244 281 5,100 -496 Level Cleveland Center
Wed 07:23:41 PM 43.1869 -78.0453 80° East 257 296 4,100 -984 Descending Cleveland Center
Wed 07:24:42 PM 43.2058 -77.9578 73° East 241 277 3,100 -709 Descending Cleveland Center
Wed 07:25:48 PM 43.2400 -77.8681 62° Northeast 217 250 2,600 -236 Descending Cleveland Center
Wed 07:26:49 PM 43.2706 -77.7892 62° Northeast 236 272 2,600  Level Cleveland Center
Wed 07:27:43 PM 43.2956 -77.7175 64° Northeast 227 261 2,600  Level Cleveland Center
Wed 07:27:53 PM 43.2972 -77.7136 60° Northeast 230 265 2,600  Level Cleveland Center
Wed 07:28:44 PM 43.2942 -77.6386 93° East 205 236 2,600  Level Cleveland Center
Wed 07:28:55 PM 43.2936 -77.6356 104° East 221 254 2,600 -98 Level Cleveland Center
Wed 07:29:45 PM 43.2672 -77.5733 120° Southeast 201 231 2,500 -97 Descending Cleveland Center
Wed 07:29:57 PM 43.2661 -77.5725 151° Southeast 213 245 2,500 100 Level Cleveland Center
Wed 07:30:45 PM 43.2219 -77.5933 199° South 166 191 2,600 97 Climbing Cleveland Center
Wed 07:30:59 PM 43.2211 -77.5917 124° Southeast 185 213 2,600 -627 Level Cleveland Center
Wed 07:31:52 PM 43.1814 -77.6261 212° Southwest 154 177 1,900 -789 Descending Cleveland Center
Wed 07:32:53 PM 43.1475 -77.6547 212° Southwest 136 157 1,100 -676 Descending Cleveland Center
Wed 07:33:03 PM 43.1428 -77.6586 211° Southwest 155 178 1,100 -500 Level Cleveland Center
Wed 07:34:05 PM 43.1150 -77.6808 210° Southwest 128 147 500 -581 Descending Cleveland Center

Login

Don't have an account? Register now (free) for customized features, flight alerts, and more!